Time;durP1;ratioP1;P1;durP2;ratioP2;P2;SDS_P1;SDS_P2;PMS_P1;PMS_P2;Temp;Humidity;BMP_temperature;BMP_pressure;BME280_temperature;BME280_humidity;BME280_pressure;Samples;Min_cycle;Max_cycle;Signal;HPM_P1;HPM_P2
2022/08/31 00:04:30;;;;;;;4.70;4.23;;;;;;;22.03;55.11;98710.00;4993996;28;104777;-69
2022/08/31 00:06:58;;;;;;;6.22;3.70;;;;;;;22.11;55.60;98709.94;4992493;28;103217;-69
2022/08/31 00:09:29;;;;;;;4.40;4.00;;;;;;;22.07;55.04;98708.59;4993373;28;103069;-69
2022/08/31 00:11:59;;;;;;;5.43;4.10;;;;;;;22.10;55.41;98708.25;4989816;28;103649;-69
2022/08/31 00:14:27;;;;;;;6.03;4.15;;;;;;;21.78;56.64;98712.03;4992641;28;103318;-69
2022/08/31 00:16:55;;;;;;;6.75;4.20;;;;;;;21.73;57.12;98703.69;4992788;28;103653;-69
2022/08/31 00:19:23;;;;;;;5.65;3.78;;;;;;;21.85;57.50;98709.47;4991427;28;102745;-69
2022/08/31 00:21:53;;;;;;;5.43;4.07;;;;;;;21.92;56.88;98702.38;4993283;28;103212;-68
2022/08/31 00:24:22;;;;;;;4.97;4.22;;;;;;;21.95;56.94;98702.03;4992258;28;103392;-69
2022/08/31 00:26:49;;;;;;;5.90;4.00;;;;;;;21.93;57.46;98712.09;4992743;28;102600;-69
2022/08/31 00:29:19;;;;;;;4.15;3.75;;;;;;;22.31;56.17;98707.53;4991453;28;102673;-69
2022/08/31 00:31:47;;;;;;;3.10;2.80;;;;;;;22.80;54.61;98714.03;4992628;28;103102;-69
2022/08/31 00:34:15;;;;;;;3.40;3.10;;;;;;;22.87;54.82;98727.59;4988671;28;103207;-69
2022/08/31 00:36:46;;;;;;;5.30;3.90;;;;;;;22.93;55.42;98734.94;4990825;28;102919;-68
2022/08/31 00:39:14;;;;;;;9.25;4.40;;;;;;;22.70;57.14;98747.66;4993734;28;104091;-69
2022/08/31 00:41:43;;;;;;;8.45;4.10;;;;;;;22.61;59.92;98751.44;4987843;28;103572;-69
2022/08/31 00:44:11;;;;;;;7.82;4.93;;;;;;;22.42;60.70;98760.91;4989047;28;103252;-69
2022/08/31 00:46:42;;;;;;;6.20;4.32;;;;;;;22.28;60.12;98756.34;4989615;28;102976;-69
2022/08/31 00:49:15;;;;;;;5.70;4.37;;;;;;;22.27;60.09;98771.63;4991951;28;104368;-68
2022/08/31 00:51:51;;;;;;;4.40;4.00;;;;;;;22.36;60.23;98773.25;4989457;28;104177;-69
2022/08/31 00:54:26;;;;;;;4.45;4.05;;;;;;;22.46;59.17;98781.88;5000760;28;103054;-69
2022/08/31 00:56:54;;;;;;;5.70;4.13;;;;;;;22.10;62.15;98783.56;4992545;28;102765;-68
2022/08/31 00:59:23;;;;;;;4.47;3.73;;;;;;;22.32;63.36;98796.13;4992385;28;102969;-69
2022/08/31 01:01:52;;;;;;;5.70;5.13;;;;;;;22.20;67.13;98794.09;4983184;28;103782;-69
2022/08/31 01:04:21;;;;;;;6.60;5.03;;;;;;;22.00;70.36;98792.91;4991533;28;103436;-69
2022/08/31 01:06:51;;;;;;;6.10;5.50;;;;;;;21.83;71.57;98793.03;4995817;28;103472;-69
2022/08/31 01:09:22;;;;;;;6.63;5.13;;;;;;;22.00;71.66;98784.84;4993203;28;103082;-69
2022/08/31 01:11:50;;;;;;;5.00;4.45;;;;;;;22.07;72.39;98780.41;4993079;28;103247;-69
2022/08/31 01:14:18;;;;;;;8.98;5.70;;;;;;;21.98;74.10;98785.00;4995059;28;103175;-69
2022/08/31 01:16:49;;;;;;;5.72;5.25;;;;;;;22.05;73.96;98767.16;4996209;28;103877;-69
2022/08/31 01:19:28;;;;;;;6.50;5.20;;;;;;;22.03;73.51;98771.88;4996374;28;103709;-69
2022/08/31 01:22:04;;;;;;;6.07;5.43;;;;;;;22.02;74.20;98764.81;4992114;28;103281;-69
2022/08/31 01:24:34;;;;;;;6.22;5.68;;;;;;;21.67;75.21;98768.09;5000702;28;103256;-69
2022/08/31 01:27:03;;;;;;;5.60;5.10;;;;;;;21.84;75.30;98781.22;4993546;28;102896;-69
2022/08/31 01:29:32;;;;;;;6.53;5.83;;;;;;;21.85;74.32;98782.06;4994341;28;104569;-68
2022/08/31 01:32:03;;;;;;;6.95;5.70;;;;;;;21.97;75.90;98779.81;4996377;28;103035;-69
2022/08/31 01:34:31;;;;;;;4.95;4.55;;;;;;;21.95;76.81;98782.72;4995185;28;103314;-69
2022/08/31 01:36:59;;;;;;;7.20;5.83;;;;;;;21.86;75.34;98778.38;5005499;28;102953;-69
2022/08/31 01:39:27;;;;;;;6.13;5.53;;;;;;;21.73;74.63;98778.97;4991957;28;102908;-69
2022/08/31 01:41:57;;;;;;;6.35;5.68;;;;;;;21.47;76.42;98783.03;4994586;28;104477;-69
2022/08/31 01:44:26;;;;;;;7.57;6.13;;;;;;;21.21;77.19;98784.19;4991069;28;103231;-70
2022/08/31 01:46:55;;;;;;;7.47;6.05;;;;;;;21.48;76.02;98785.50;4995426;28;103034;-70
2022/08/31 01:49:24;;;;;;;7.78;5.70;;;;;;;21.34;77.08;98787.13;4991322;28;104178;-68
2022/08/31 01:51:53;;;;;;;6.60;5.70;;;;;;;21.43;77.77;98787.06;4993402;28;103924;-69
2022/08/31 01:54:25;;;;;;;6.95;6.10;;;;;;;21.33;78.82;98782.75;4994065;28;103276;-69
2022/08/31 01:56:54;;;;;;;5.13;4.63;;;;;;;21.68;77.35;98780.50;4995558;28;103084;-69
2022/08/31 01:59:41;;;;;;;6.35;5.30;;;;;;;21.85;75.48;98782.06;4990434;28;103941;-69
2022/08/31 02:02:20;;;;;;;5.28;4.78;;;;;;;21.89;75.57;98783.44;4984487;28;103228;-69
2022/08/31 02:04:48;;;;;;;7.95;6.03;;;;;;;21.79;76.32;98790.84;4992031;28;105220;-69
2022/08/31 02:07:20;;;;;;;9.27;7.05;;;;;;;20.15;84.00;98803.38;4996015;28;102657;-69
2022/08/31 02:09:47;;;;;;;9.00;6.38;;;;;;;20.67;79.68;98801.97;4994117;28;103049;-69
2022/08/31 02:12:17;;;;;;;7.53;5.63;;;;;;;21.11;76.74;98799.66;4987448;28;103369;-68
2022/08/31 02:14:47;;;;;;;7.37;6.03;;;;;;;20.71;78.64;98802.47;4991126;28;103010;-69
2022/08/31 02:17:15;;;;;;;5.30;4.80;;;;;;;21.11;76.71;98799.66;5009039;27;102679;-69
2022/08/31 02:19:43;;;;;;;7.32;5.80;;;;;;;21.26;75.86;98797.91;4988678;28;104039;-69
2022/08/31 02:22:14;;;;;;;6.90;6.07;;;;;;;20.84;76.35;98805.44;4989355;28;105154;-69
2022/08/31 02:24:43;;;;;;;6.65;6.05;;;;;;;20.74;76.77;98804.81;5008214;27;103245;-69
2022/08/31 02:27:13;;;;;;;7.07;5.55;;;;;;;21.18;76.25;98799.81;4993297;28;103623;-68
2022/08/31 02:29:41;;;;;;;7.15;5.95;;;;;;;20.73;77.57;98800.44;4991198;28;102896;-69
2022/08/31 02:32:11;;;;;;;6.50;5.88;;;;;;;20.77;76.85;98807.16;4990813;28;104070;-69
2022/08/31 02:34:48;;;;;;;6.90;6.10;;;;;;;20.95;76.52;98799.69;4993055;28;103383;-69
2022/08/31 02:37:16;;;;;;;6.10;5.28;;;;;;;21.13;76.02;98799.50;4992666;28;102748;-69
2022/08/31 02:39:47;;;;;;;6.73;6.13;;;;;;;21.11;76.67;98794.28;4993684;28;103158;-69
2022/08/31 02:42:17;;;;;;;6.85;6.15;;;;;;;20.85;78.50;98791.03;4991150;28;103382;-68
2022/08/31 02:44:45;;;;;;;5.63;5.10;;;;;;;20.81;79.10;98795.06;4991887;28;103185;-69
2022/08/31 02:47:15;;;;;;;5.25;4.80;;;;;;;21.29;77.41;98796.72;4991046;28;102788;-69
2022/08/31 02:49:57;;;;;;;5.93;5.32;;;;;;;21.46;76.11;98801.00;5000936;28;103440;-69
2022/08/31 02:52:25;;;;;;;5.75;5.10;;;;;;;21.50;75.98;98798.78;5003418;28;103283;-69
2022/08/31 02:54:54;;;;;;;6.68;5.57;;;;;;;21.26;77.16;98803.28;4993263;28;102962;-69
2022/08/31 02:57:22;;;;;;;4.87;4.37;;;;;;;21.28;77.31;98803.09;4993436;28;102812;-69
2022/08/31 02:59:50;;;;;;;6.38;5.75;;;;;;;21.36;76.50;98814.63;4995082;28;102584;-69
2022/08/31 03:02:21;;;;;;;5.75;4.68;;;;;;;21.44;75.49;98802.19;4989961;28;105185;-69
2022/08/31 03:05:00;;;;;;;6.70;5.40;;;;;;;21.32;76.01;98797.22;4992272;28;103392;-69
2022/08/31 03:07:28;;;;;;;5.20;4.75;;;;;;;21.44;75.29;98803.03;4993302;28;102846;-69
2022/08/31 03:09:57;;;;;;;6.53;5.35;;;;;;;21.45;75.28;98798.47;4991941;28;105186;-69
2022/08/31 03:12:25;;;;;;;6.13;5.35;;;;;;;21.33;76.54;98798.88;4991169;28;104412;-69
2022/08/31 03:14:53;;;;;;;8.10;6.10;;;;;;;21.21;77.61;98805.66;4994891;28;103192;-69
2022/08/31 03:17:22;;;;;;;5.53;4.90;;;;;;;21.31;77.27;98800.06;4993788;28;102635;-69
2022/08/31 03:19:50;;;;;;;6.18;5.57;;;;;;;21.36;77.61;98803.88;5006140;27;103191;-69
2022/08/31 03:22:18;;;;;;;5.60;5.10;;;;;;;21.30;77.93;98807.31;4991398;28;103252;-69
2022/08/31 03:24:47;;;;;;;4.75;4.35;;;;;;;21.31;77.79;98806.28;4987953;28;103876;-69
2022/08/31 03:27:17;;;;;;;5.82;5.32;;;;;;;21.31;77.34;98810.81;4990214;28;103114;-69
2022/08/31 03:29:46;;;;;;;8.85;6.43;;;;;;;21.17;77.11;98801.63;5007201;27;102753;-69
2022/08/31 03:32:19;;;;;;;5.00;4.60;;;;;;;21.26;77.08;98805.97;4988972;28;103889;-69
2022/08/31 03:34:54;;;;;;;8.10;5.75;;;;;;;21.14;77.81;98802.00;4989944;28;103276;-69
2022/08/31 03:37:23;;;;;;;5.93;5.35;;;;;;;21.14;78.26;98804.69;4990993;28;102797;-69
2022/08/31 03:39:53;;;;;;;5.13;4.70;;;;;;;21.25;77.67;98803.44;4993749;28;102824;-69
2022/08/31 03:42:21;;;;;;;5.90;5.30;;;;;;;21.27;77.21;98799.59;4991015;28;103443;-69
2022/08/31 03:44:53;;;;;;;4.50;4.10;;;;;;;21.35;77.11;98799.56;4993097;28;103250;-69
2022/08/31 03:47:26;;;;;;;5.03;4.50;;;;;;;21.35;76.74;98799.56;4998564;28;103198;-68
2022/08/31 03:49:57;;;;;;;5.40;4.90;;;;;;;21.34;76.79;98797.88;4992880;28;102983;-68
2022/08/31 03:52:30;;;;;;;6.10;5.60;;;;;;;21.25;77.38;98796.22;5007199;27;103589;-69
2022/08/31 03:55:10;;;;;;;4.25;3.90;;;;;;;21.32;77.17;98794.53;4988720;28;105137;-69
2022/08/31 03:57:40;;;;;;;6.05;5.45;;;;;;;21.13;77.76;98792.28;4991392;28;102620;-70
2022/08/31 04:00:09;;;;;;;5.82;5.32;;;;;;;21.14;77.45;98793.94;4990762;28;102791;-70
2022/08/31 04:02:41;;;;;;;4.70;4.30;;;;;;;21.20;76.56;98801.28;4994407;28;103208;-70
2022/08/31 04:05:31;;;;;;;5.55;5.07;;;;;;;21.13;77.07;98797.66;4993870;28;103217;-69
2022/08/31 04:08:02;;;;;;;4.67;4.27;;;;;;;21.16;77.26;98801.84;4995144;28;102743;-70
2022/08/31 04:11:07;;;;;;;5.83;5.33;;;;;;;21.12;77.80;98811.25;4983322;28;103043;-70
2022/08/31 04:13:53;;;;;;;4.85;4.45;;;;;;;21.07;78.46;98810.91;4993866;28;103011;-70
2022/08/31 04:16:40;;;;;;;5.72;5.18;;;;;;;21.26;77.70;98808.66;4995325;28;103180;-70
2022/08/31 04:19:28;;;;;;;5.65;5.15;;;;;;;21.30;76.73;98810.00;4991182;28;102618;-61
2022/08/31 04:22:09;;;;;;;6.72;6.05;;;;;;;21.06;77.11;98822.63;4992567;28;102840;-71
2022/08/31 04:24:42;;;;;;;6.33;5.73;;;;;;;21.15;77.71;98813.56;4986794;28;103204;-70
2022/08/31 04:27:10;;;;;;;5.05;4.30;;;;;;;21.24;77.18;98816.06;4991981;28;103063;-61
2022/08/31 04:29:38;;;;;;;5.27;4.87;;;;;;;21.38;75.59;98828.75;5008231;27;103011;-61
2022/08/31 04:32:06;;;;;;;6.70;6.10;;;;;;;21.22;77.12;98822.63;4989012;28;102940;-71
2022/08/31 04:34:37;;;;;;;7.80;7.00;;;;;;;20.91;79.25;98811.81;4993852;28;103353;-62
2022/08/31 04:37:07;;;;;;;6.15;5.50;;;;;;;21.06;78.84;98822.63;4990368;28;104117;-61
2022/08/31 04:39:38;;;;;;;7.22;6.38;;;;;;;21.08;78.70;98824.19;4997045;28;102714;-71
2022/08/31 04:42:18;;;;;;;7.00;6.30;;;;;;;21.07;79.13;98824.34;4994718;28;102750;-71
2022/08/31 04:44:46;;;;;;;5.90;5.38;;;;;;;21.07;79.25;98825.22;4986242;28;103172;-71
2022/08/31 04:47:15;;;;;;;7.40;6.70;;;;;;;20.90;79.34;98828.91;4994853;28;103278;-61
2022/08/31 04:49:43;;;;;;;6.13;5.53;;;;;;;21.04;79.47;98835.41;4923344;28;103577;-71
2022/08/31 04:52:11;;;;;;;6.15;5.55;;;;;;;21.14;79.40;98830.69;4975175;28;104416;-61
2022/08/31 04:54:41;;;;;;;6.28;5.75;;;;;;;21.12;79.21;98838.94;4994647;28;104298;-62
2022/08/31 04:57:09;;;;;;;5.47;5.00;;;;;;;21.13;79.34;98846.00;4993475;28;103741;-70
2022/08/31 04:59:37;;;;;;;6.20;5.70;;;;;;;21.21;78.55;98848.66;4995977;28;102885;-70
2022/08/31 05:02:34;;;;;;;6.43;5.40;;;;;;;21.17;78.82;98852.69;4976546;28;104361;-70
2022/08/31 05:05:11;;;;;;;7.68;6.95;;;;;;;20.79;80.63;98848.94;4994038;28;103868;-70
2022/08/31 05:07:39;;;;;;;7.10;6.50;;;;;;;20.80;81.42;98855.13;4971859;28;103246;-71
2022/08/31 05:10:10;;;;;;;6.28;5.70;;;;;;;20.88;80.99;98852.44;4989815;28;102774;-71
2022/08/31 05:12:38;;;;;;;4.60;4.20;;;;;;;21.07;79.68;98857.44;4988662;28;103448;-70
2022/08/31 05:15:07;;;;;;;6.70;6.10;;;;;;;21.04;79.94;98860.44;4988616;28;103985;-69
2022/08/31 05:17:35;;;;;;;6.28;5.75;;;;;;;21.09;79.80;98860.78;4988870;28;103199;-70
2022/08/31 05:20:05;;;;;;;4.90;4.50;;;;;;;21.18;78.61;98865.13;4990423;28;102672;-61
2022/08/31 05:22:33;;;;;;;5.50;5.00;;;;;;;21.21;77.90;98864.78;4987502;28;103809;-62
2022/08/31 05:25:04;;;;;;;5.97;5.47;;;;;;;21.26;78.14;98872.28;4982375;28;103258;-61
2022/08/31 05:27:33;;;;;;;4.57;4.18;;;;;;;21.28;77.69;98860.34;4985857;28;103272;-70
2022/08/31 05:30:05;;;;;;;6.10;5.53;;;;;;;21.19;78.32;98864.09;4989097;28;102932;-62
2022/08/31 05:32:48;;;;;;;7.22;6.55;;;;;;;21.17;79.24;98863.44;4988738;28;103245;-61
2022/08/31 05:35:16;;;;;;;6.30;5.75;;;;;;;21.16;79.63;98867.16;4987870;28;103002;-61
2022/08/31 05:37:45;;;;;;;8.73;7.35;;;;;;;20.43;83.49;98862.91;4987435;28;103235;-61
2022/08/31 05:40:13;;;;;;;7.90;7.20;;;;;;;20.67;82.25;98874.44;4987334;28;102758;-62
2022/08/31 05:42:43;;;;;;;6.63;5.93;;;;;;;20.89;81.12;98864.00;4985663;28;104482;-62
2022/08/31 05:45:11;;;;;;;5.72;5.22;;;;;;;21.02;80.06;98865.16;4987652;28;103303;-62
2022/08/31 05:47:41;;;;;;;5.22;4.68;;;;;;;21.14;78.57;98868.31;4989728;28;103375;-69
2022/08/31 05:50:12;;;;;;;6.43;5.93;;;;;;;21.13;78.24;98872.03;4989401;28;103432;-70
2022/08/31 05:52:42;;;;;;;4.40;4.00;;;;;;;21.24;77.61;98875.16;4984090;28;102819;-70
2022/08/31 05:55:10;;;;;;;7.88;6.13;;;;;;;21.20;76.93;98876.53;4988126;28;104129;-62
2022/08/31 05:57:39;;;;;;;6.67;5.97;;;;;;;21.21;76.88;98878.19;4987583;28;105191;-70
2022/08/31 06:00:10;;;;;;;6.60;5.50;;;;;;;21.24;76.94;98879.69;4990083;28;102707;-62
2022/08/31 06:02:44;;;;;;;5.87;5.37;;;;;;;21.30;76.31;98879.00;4987273;28;104756;-70
2022/08/31 06:05:14;;;;;;;4.25;3.85;;;;;;;21.29;75.76;98883.53;4988471;28;104119;-70
2022/08/31 06:07:45;;;;;;;3.70;3.40;;;;;;;21.38;76.08;98887.88;4979870;28;103354;-61
2022/08/31 06:10:16;;;;;;;5.03;4.32;;;;;;;21.44;75.84;98888.19;4984671;28;103122;-62
2022/08/31 06:12:46;;;;;;;4.20;3.90;;;;;;;21.49;76.09;98889.34;4986640;28;103964;-70
2022/08/31 06:15:16;;;;;;;5.03;4.63;;;;;;;21.50;75.66;98882.13;4985591;28;105386;-71
2022/08/31 06:17:44;;;;;;;5.00;4.60;;;;;;;21.53;76.22;98879.88;4991183;28;103136;-70
2022/08/31 06:20:14;;;;;;;4.78;4.38;;;;;;;21.54;76.62;98894.16;4991512;28;102883;-70
2022/08/31 06:22:46;;;;;;;4.30;3.95;;;;;;;21.59;76.35;98892.63;4990657;28;103040;-70
2022/08/31 06:25:24;;;;;;;6.10;5.50;;;;;;;21.59;76.62;98889.09;5007505;27;103259;-61
2022/08/31 06:27:55;;;;;;;4.50;4.10;;;;;;;21.49;77.72;98900.09;4989578;28;103249;-62
2022/08/31 06:30:26;;;;;;;5.20;4.70;;;;;;;21.60;77.11;98890.78;4993135;28;102987;-70
2022/08/31 06:32:55;;;;;;;6.30;5.70;;;;;;;21.37;77.47;98896.09;4994297;28;104111;-70
2022/08/31 06:35:31;;;;;;;6.97;6.28;;;;;;;20.97;78.64;98897.03;4993142;28;103829;-62
2022/08/31 06:38:22;;;;;;;6.57;5.88;;;;;;;21.22;77.41;98897.84;4990957;28;103521;-70
2022/08/31 06:41:21;;;;;;;5.93;5.43;;;;;;;21.46;77.27;98897.75;4987966;28;102761;-70
2022/08/31 06:44:13;;;;;;;4.70;4.28;;;;;;;21.58;75.71;98899.03;4992416;28;102821;-70
2022/08/31 06:47:06;;;;;;;6.38;5.78;;;;;;;21.58;75.88;98908.94;4981638;28;103207;-70
2022/08/31 06:49:38;;;;;;;6.30;5.70;;;;;;;21.44;76.07;98904.31;4990864;28;103187;-68
2022/08/31 06:52:07;;;;;;;6.20;5.60;;;;;;;21.21;76.41;98902.38;4991576;28;102748;-68
2022/08/31 06:54:37;;;;;;;7.38;6.40;;;;;;;20.73;78.22;98907.84;4994184;28;102878;-72
2022/08/31 06:57:23;;;;;;;6.20;5.53;;;;;;;21.10;77.01;98912.66;4992350;28;104042;-62
2022/08/31 07:00:15;;;;;;;5.90;5.40;;;;;;;21.24;76.11;98907.41;4985082;28;103192;-62
2022/08/31 07:03:22;;;;;;;7.10;5.43;;;;;;;21.25;75.07;98901.00;4987535;28;103982;-60
2022/08/31 07:05:52;;;;;;;6.13;5.57;;;;;;;21.21;74.45;98899.69;5001707;28;103108;-63
2022/08/31 07:08:21;;;;;;;5.57;5.10;;;;;;;21.23;74.75;98908.41;4993186;28;105426;-61
2022/08/31 07:10:49;;;;;;;5.95;5.45;;;;;;;21.13;74.89;98902.41;5002656;28;103296;-61
2022/08/31 07:13:18;;;;;;;5.78;5.28;;;;;;;21.07;74.75;98911.16;4993722;28;103196;-61
2022/08/31 07:15:49;;;;;;;6.78;6.07;;;;;;;20.74;74.47;98918.38;4994680;28;102794;-61
2022/08/31 07:18:20;;;;;;;5.88;5.38;;;;;;;20.67;74.38;98911.19;4993703;28;103373;-61
2022/08/31 07:20:49;;;;;;;5.00;4.60;;;;;;;20.94;73.45;98921.53;4993770;28;103311;-62
2022/08/31 07:23:17;;;;;;;5.30;4.82;;;;;;;20.95;72.32;98915.16;4991179;28;102758;-60
2022/08/31 07:25:53;;;;;;;7.65;5.35;;;;;;;20.51;72.41;98914.72;4993680;28;103075;-61
2022/08/31 07:28:24;;;;;;;6.97;5.37;;;;;;;20.96;70.70;98924.06;4992767;28;103419;-61
2022/08/31 07:30:55;;;;;;;5.72;5.05;;;;;;;21.03;70.47;98920.53;4992158;28;103220;-61
2022/08/31 07:33:25;;;;;;;7.60;5.78;;;;;;;20.99;70.34;98927.25;4993488;28;103085;-61
2022/08/31 07:35:57;;;;;;;6.05;5.45;;;;;;;20.84;70.95;98926.28;4988233;28;104099;-61
2022/08/31 07:44:04;;;;;;;5.68;5.18;;;;;;;21.12;70.01;98924.91;4988545;28;103759;-70
2022/08/31 07:46:34;;;;;;;6.45;5.68;;;;;;;21.42;69.39;98922.47;4993817;28;102863;-71
2022/08/31 07:49:12;;;;;;;6.40;5.40;;;;;;;20.98;70.66;98922.88;4991976;28;103320;-70
2022/08/31 07:51:58;;;;;;;6.18;5.25;;;;;;;21.15;69.95;98921.88;4991120;28;103799;-69
2022/08/31 07:54:39;;;;;;;5.13;4.63;;;;;;;21.14;70.82;98928.25;4983948;28;104522;-70
2022/08/31 07:57:30;;;;;;;6.03;5.53;;;;;;;21.64;68.56;98929.75;4988530;28;103072;-70
2022/08/31 08:00:06;;;;;;;7.15;6.55;;;;;;;21.53;67.31;98928.28;4996729;28;104461;-70
2022/08/31 08:02:45;;;;;;;7.10;6.40;;;;;;;21.65;67.64;98932.25;4986558;28;102980;-70
2022/08/31 08:05:25;;;;;;;6.57;6.07;;;;;;;21.78;68.54;98929.03;4983120;28;102937;-70
2022/08/31 08:08:15;;;;;;;8.32;6.50;;;;;;;21.67;69.45;98932.09;4986042;28;102794;-70
2022/08/31 08:11:07;;;;;;;7.97;6.85;;;;;;;21.59;68.34;98934.78;4985741;28;103278;-70
2022/08/31 08:13:54;;;;;;;7.90;6.18;;;;;;;21.27;71.56;98936.63;4995050;28;103320;-70
2022/08/31 08:16:34;;;;;;;6.90;6.20;;;;;;;21.31;71.26;98943.31;4989586;28;102738;-70
2022/08/31 08:19:38;;;;;;;5.80;5.30;;;;;;;21.30;71.28;98943.50;4986025;28;102759;-70
2022/08/31 08:22:07;;;;;;;5.95;5.45;;;;;;;21.50;71.58;98943.94;4984029;28;103373;-70
2022/08/31 08:25:03;;;;;;;6.40;5.80;;;;;;;21.22;72.93;98955.09;4991914;28;103235;-70
2022/08/31 08:27:44;;;;;;;6.33;5.10;;;;;;;21.30;72.71;98955.09;4991436;28;102724;-70
2022/08/31 08:30:34;;;;;;;6.87;6.10;;;;;;;20.88;72.38;98954.47;5005548;28;103060;-70
2022/08/31 08:33:02;;;;;;;5.27;4.77;;;;;;;21.14;72.34;98956.94;4994096;28;103274;-70
2022/08/31 08:35:33;;;;;;;8.57;6.07;;;;;;;20.76;74.25;98951.28;5007351;28;103431;-69
2022/08/31 08:38:03;;;;;;;5.97;5.27;;;;;;;21.28;72.72;98961.63;5004097;28;103157;-70
2022/08/31 08:40:38;;;;;;;6.15;5.38;;;;;;;21.39;71.99;98959.41;4992441;28;102833;-70
2022/08/31 08:43:06;;;;;;;5.68;5.18;;;;;;;21.55;71.46;98957.69;5001605;28;104213;-70
2022/08/31 08:45:35;;;;;;;4.97;4.47;;;;;;;21.71;71.75;98958.44;4994862;28;103166;-70
2022/08/31 08:48:10;;;;;;;6.53;5.80;;;;;;;20.94;74.90;98956.44;4989965;28;102833;-70
2022/08/31 08:50:41;;;;;;;6.00;5.40;;;;;;;21.28;73.11;98956.25;5005187;28;103997;-70
2022/08/31 08:53:14;;;;;;;5.72;5.20;;;;;;;21.29;71.47;98960.63;4990688;28;104597;-70
2022/08/31 09:00:23;;;;;;;5.60;5.10;;;;;;;21.67;72.29;98973.25;4982404;22;102928;-70
2022/08/31 09:02:59;;;;;;;6.18;5.63;;;;;;;21.82;71.93;98984.09;4989728;28;104525;-71
2022/08/31 09:05:59;;;;;;;6.30;5.70;;;;;;;21.73;71.10;98980.63;4957131;28;103186;-70
2022/08/31 09:09:06;;;;;;;7.10;6.40;;;;;;;21.58;71.43;98976.16;4956980;28;103098;-71
2022/08/31 09:11:53;;;;;;;6.50;5.78;;;;;;;21.97;67.90;98979.72;4921913;28;102813;-72
2022/08/31 09:14:47;;;;;;;6.43;5.20;;;;;;;22.03;66.95;98978.16;4957534;28;102992;-71
2022/08/31 09:17:32;;;;;;;8.73;5.93;;;;;;;22.04;68.15;98980.66;4954866;28;103424;-69
2022/08/31 09:20:02;;;;;;;7.55;6.18;;;;;;;20.86;70.79;98982.47;4952413;28;102956;-69
2022/08/31 09:22:34;;;;;;;5.30;4.80;;;;;;;21.49;68.38;98986.09;4959161;28;103010;-70
2022/08/31 09:25:06;;;;;;;8.63;5.80;;;;;;;21.39;67.27;98988.97;4954059;28;102954;-72
2022/08/31 09:27:57;;;;;;;6.97;6.28;;;;;;;21.10;70.75;98985.19;4966049;28;103600;-72
2022/08/31 09:30:54;;;;;;;5.80;5.30;;;;;;;21.98;67.08;98989.44;4967256;28;103187;-72
2022/08/31 09:33:26;;;;;;;6.18;5.00;;;;;;;21.95;65.87;98981.75;4966709;28;103355;-72
2022/08/31 09:36:14;;;;;;;6.82;6.20;;;;;;;20.75;68.52;98991.72;4960510;28;104081;-72
2022/08/31 09:38:45;;;;;;;7.22;6.00;;;;;;;20.90;70.09;98983.81;4941029;28;103842;-71
2022/08/31 09:41:34;;;;;;;4.80;4.38;;;;;;;21.79;67.62;98976.38;4969299;28;103267;-70
2022/08/31 09:44:31;;;;;;;6.95;5.88;;;;;;;21.40;66.84;98992.50;4967771;28;102965;-72
2022/08/31 09:47:04;;;;;;;6.95;5.80;;;;;;;21.33;67.44;98989.66;4955844;28;103056;-72
2022/08/31 09:49:35;;;;;;;7.93;5.65;;;;;;;21.27;68.57;98993.06;4966915;28;103368;-72
2022/08/31 09:52:20;;;;;;;7.35;5.97;;;;;;;21.43;65.63;98992.16;4967212;28;103061;-71
2022/08/31 09:55:13;;;;;;;5.47;4.97;;;;;;;21.79;66.04;98985.31;4947044;28;102822;-72
2022/08/31 09:57:50;;;;;;;7.45;6.18;;;;;;;21.70;66.45;98993.56;4964567;28;103058;-72
2022/08/31 10:00:31;;;;;;;7.47;6.20;;;;;;;21.36;68.01;98992.00;4965953;28;103969;-71
2022/08/31 10:03:12;;;;;;;6.40;5.60;;;;;;;21.13;69.29;98996.44;4957054;28;103796;-70
2022/08/31 10:05:43;;;;;;;7.75;5.53;;;;;;;21.36;67.39;98991.19;4968014;28;102678;-70
2022/08/31 10:08:26;;;;;;;6.45;5.80;;;;;;;21.70;66.01;98985.50;4972293;28;102982;-69
2022/08/31 10:10:57;;;;;;;6.65;6.00;;;;;;;21.35;66.57;98993.03;4984486;28;104089;-69
2022/08/31 10:13:35;;;;;;;6.50;5.90;;;;;;;21.39;67.73;98991.66;4987108;28;103168;-69
2022/08/31 10:16:13;;;;;;;10.57;6.47;;;;;;;20.75;68.47;98995.25;4992655;28;103012;-70
2022/08/31 10:18:54;;;;;;;7.47;5.63;;;;;;;21.42;67.67;98992.34;4985338;28;103031;-69
2022/08/31 10:21:29;;;;;;;8.93;6.23;;;;;;;21.70;67.72;98978.28;4985737;28;103209;-69
2022/08/31 10:24:09;;;;;;;7.82;6.53;;;;;;;21.52;66.45;98979.53;4984378;28;103061;-69
2022/08/31 10:26:45;;;;;;;8.63;6.47;;;;;;;21.02;68.72;98986.00;4986493;28;103053;-70
2022/08/31 10:29:31;;;;;;;8.00;6.88;;;;;;;21.12;68.68;98989.38;4986280;28;102696;-70
2022/08/31 10:32:06;;;;;;;6.93;5.82;;;;;;;21.84;68.62;98984.75;4982623;28;104505;-70
2022/08/31 10:37:34;;;;;;;8.65;6.50;;;;;;;21.61;68.35;98991.94;4980386;28;102946;-70
2022/08/31 10:40:07;;;;;;;7.43;5.90;;;;;;;21.66;67.04;98990.41;4966044;28;103320;-70
2022/08/31 10:42:39;;;;;;;7.50;6.15;;;;;;;21.47;66.40;98992.66;4982489;28;103274;-70
2022/08/31 10:45:21;;;;;;;5.50;4.45;;;;;;;22.10;64.87;98985.34;4986094;28;103439;-70
2022/08/31 10:47:51;;;;;;;8.20;5.97;;;;;;;22.06;66.71;98988.56;4985150;28;102912;-70
2022/08/31 10:50:27;;;;;;;6.43;5.63;;;;;;;22.42;64.69;98990.53;4981463;28;103014;-70
2022/08/31 10:53:06;;;;;;;7.85;6.60;;;;;;;22.12;64.21;98991.38;4972624;28;103457;-68
2022/08/31 10:55:42;;;;;;;8.77;5.70;;;;;;;22.33;63.96;98988.91;4975348;28;103165;-70
2022/08/31 10:58:23;;;;;;;6.50;5.70;;;;;;;22.66;63.36;98996.75;4975340;28;103435;-69
2022/08/31 11:00:56;;;;;;;7.28;6.13;;;;;;;22.31;63.01;98982.88;4980821;28;102772;-70
2022/08/31 11:03:51;;;;;;;7.13;6.20;;;;;;;22.16;64.26;98981.94;4960156;28;104005;-69
2022/08/31 11:06:26;;;;;;;7.43;6.53;;;;;;;21.79;63.97;98981.75;4970700;28;103219;-70
2022/08/31 11:09:02;;;;;;;6.22;5.45;;;;;;;22.01;65.16;98986.41;4957720;28;103977;-70
2022/08/31 11:11:38;;;;;;;5.23;4.73;;;;;;;22.54;63.46;98991.78;4956298;28;103234;-70
2022/08/31 11:14:43;;;;;;;8.68;6.90;;;;;;;21.35;65.08;98987.66;4940795;28;104797;-70
2022/08/31 11:17:27;;;;;;;8.82;5.90;;;;;;;21.71;66.84;98989.88;4958652;28;103215;-70
2022/08/31 11:20:22;;;;;;;7.23;6.33;;;;;;;21.66;66.97;98981.50;4958584;28;103018;-70
2022/08/31 11:23:12;;;;;;;6.30;5.47;;;;;;;21.87;65.87;98979.91;4959112;28;103092;-70
2022/08/31 11:26:13;;;;;;;6.90;6.20;;;;;;;21.56;66.61;98981.69;4957359;28;103397;-70
2022/08/31 11:28:47;;;;;;;6.23;5.50;;;;;;;21.99;65.47;98983.06;4963563;28;103539;-70
2022/08/31 11:31:23;;;;;;;6.95;6.32;;;;;;;22.02;64.77;98977.31;4959388;28;102832;-70
2022/08/31 11:34:14;;;;;;;6.93;6.15;;;;;;;21.77;65.64;98981.13;4968409;28;102733;-70
2022/08/31 11:36:49;;;;;;;6.10;5.30;;;;;;;21.83;66.06;98988.47;4960419;28;104529;-69
2022/08/31 11:39:35;;;;;;;6.22;5.40;;;;;;;22.05;65.08;98981.50;4959895;28;103041;-69
2022/08/31 11:42:11;;;;;;;7.00;5.57;;;;;;;22.27;64.50;98981.53;4964988;28;102872;-69
2022/08/31 11:45:02;;;;;;;8.53;6.37;;;;;;;21.87;64.91;98982.59;4963233;28;103590;-69
2022/08/31 11:47:50;;;;;;;5.57;5.07;;;;;;;22.17;64.58;98980.94;4944984;28;103749;-72
2022/08/31 11:50:52;;;;;;;6.43;5.70;;;;;;;22.19;65.04;98976.22;4942257;28;103203;-69
2022/08/31 11:53:35;;;;;;;6.73;5.00;;;;;;;22.50;65.24;98981.56;4962791;28;102654;-70
2022/08/31 11:56:04;;;;;;;6.25;5.53;;;;;;;22.25;65.43;98972.81;4963426;28;102800;-69
2022/08/31 11:58:37;;;;;;;6.47;5.57;;;;;;;22.05;64.46;98979.66;4963644;28;103422;-69
2022/08/31 12:01:29;;;;;;;6.68;6.00;;;;;;;22.11;64.90;98975.41;4966051;28;103653;-61
2022/08/31 12:04:02;;;;;;;6.30;5.80;;;;;;;22.39;64.73;98980.13;4961861;28;102963;-61
2022/08/31 12:06:58;;;;;;;7.23;6.53;;;;;;;21.69;65.02;98973.09;4955207;28;104042;-62
2022/08/31 12:09:52;;;;;;;6.88;6.28;;;;;;;21.83;64.57;98972.34;4962543;28;103278;-61
2022/08/31 12:12:37;;;;;;;7.10;5.85;;;;;;;22.10;64.22;98969.19;4953073;28;103719;-61
2022/08/31 12:15:16;;;;;;;6.70;6.00;;;;;;;22.51;64.57;98970.59;4964882;28;102838;-61
2022/08/31 12:18:01;;;;;;;6.25;5.75;;;;;;;22.37;65.88;98971.38;4962645;28;103016;-61